Time;durP1;ratioP1;P1;durP2;ratioP2;P2;SDS_P1;SDS_P2;PMS_P1;PMS_P2;Temp;Humidity;BMP_temperature;BMP_pressure;BME280_temperature;BME280_humidity;BME280_pressure;Samples;Min_cycle;Max_cycle;Signal;HPM_P1;HPM_P2
2022/12/01 00:00:57;;;;;;;56.00;31.63;;;;;;;;;;5110527;28;20430;-63
2022/12/01 00:03:23;;;;;;;63.90;33.17;;;;;;;;;;5119292;28;20039;-64
2022/12/01 00:05:59;;;;;;;53.08;32.60;;;;;;;;;;5117921;27;20500;-63
2022/12/01 00:08:25;;;;;;;58.53;33.40;;;;;;;;;;5125854;27;20484;-63
2022/12/01 00:10:52;;;;;;;56.13;32.30;;;;;;;;;;5120981;27;20130;-63
2022/12/01 00:13:18;;;;;;;64.90;34.58;;;;;;;;;;5120915;27;20558;-63
2022/12/01 00:15:44;;;;;;;63.50;35.08;;;;;;;;;;5110651;27;20042;-63
2022/12/01 00:18:10;;;;;;;70.93;36.60;;;;;;;;;;5125328;27;20043;-63
2022/12/01 00:20:37;;;;;;;64.60;34.85;;;;;;;;;;5119887;27;20450;-63
2022/12/01 00:23:03;;;;;;;63.45;35.90;;;;;;;;;;5100995;27;20055;-63
2022/12/01 00:25:29;;;;;;;57.95;33.47;;;;;;;;;;5127202;27;20031;-63
2022/12/01 00:27:56;;;;;;;68.28;36.83;;;;;;;;;;5098086;28;20051;-63
2022/12/01 00:30:22;;;;;;;68.60;37.03;;;;;;;;;;5081569;28;20101;-63
2022/12/01 00:32:49;;;;;;;71.43;36.58;;;;;;;;;;5095792;28;20480;-63
2022/12/01 00:35:15;;;;;;;64.53;34.65;;;;;;;;;;5096552;28;20039;-63
2022/12/01 00:37:42;;;;;;;66.25;35.45;;;;;;;;;;5095166;28;20456;-63
2022/12/01 00:40:09;;;;;;;63.38;35.88;;;;;;;;;;5094865;28;20500;-63
2022/12/01 00:42:35;;;;;;;72.63;38.22;;;;;;;;;;5088726;28;20042;-63
2022/12/01 00:45:01;;;;;;;63.00;34.90;;;;;;;;;;5087927;28;20435;-63
2022/12/01 00:47:27;;;;;;;67.35;35.90;;;;;;;;;;5093285;28;20040;-63
2022/12/01 00:49:53;;;;;;;70.72;37.53;;;;;;;;;;5092277;28;20495;-63
2022/12/01 00:52:20;;;;;;;63.60;36.50;;;;;;;;;;5082648;28;20478;-63
2022/12/01 00:54:46;;;;;;;67.13;36.70;;;;;;;;;;5084820;28;20089;-63
2022/12/01 00:57:12;;;;;;;67.90;37.55;;;;;;;;;;5094132;28;20040;-63
2022/12/01 00:59:39;;;;;;;71.22;39.88;;;;;;;;;;5090923;28;20071;-63
2022/12/01 01:02:06;;;;;;;65.00;36.60;;;;;;;;;;5100773;28;20040;-63
2022/12/01 01:04:34;;;;;;;66.38;37.55;;;;;;;;;;5089086;28;20040;-63
2022/12/01 01:07:00;;;;;;;59.63;34.30;;;;;;;;;;5093448;28;20036;-63
2022/12/01 01:09:26;;;;;;;64.85;34.90;;;;;;;;;;5079314;28;20401;-63
2022/12/01 01:11:53;;;;;;;61.67;36.90;;;;;;;;;;5098985;28;20048;-63
2022/12/01 01:14:19;;;;;;;71.22;35.72;;;;;;;;;;5103603;28;20470;-63
2022/12/01 01:16:45;;;;;;;65.38;36.85;;;;;;;;;;5085241;28;20031;-63
2022/12/01 01:19:11;;;;;;;64.50;37.70;;;;;;;;;;5084578;28;20045;-63
2022/12/01 01:21:38;;;;;;;63.45;36.38;;;;;;;;;;5094077;28;20448;-63
2022/12/01 01:24:04;;;;;;;66.00;36.75;;;;;;;;;;5096989;28;20037;-63
2022/12/01 01:26:31;;;;;;;73.40;38.22;;;;;;;;;;5091460;27;20056;-63
2022/12/01 01:28:58;;;;;;;70.38;37.45;;;;;;;;;;5117569;27;20047;-63
2022/12/01 01:31:25;;;;;;;68.38;36.33;;;;;;;;;;5125626;27;20271;-63
2022/12/01 01:33:52;;;;;;;66.97;36.22;;;;;;;;;;5112866;27;20236;-63
2022/12/01 01:36:18;;;;;;;67.75;37.03;;;;;;;;;;5125536;27;20047;-63
2022/12/01 01:38:45;;;;;;;67.95;36.67;;;;;;;;;;5113623;27;20393;-63
2022/12/01 01:41:11;;;;;;;67.47;37.15;;;;;;;;;;5125664;27;20046;-63
2022/12/01 01:43:40;;;;;;;67.35;37.13;;;;;;;;;;5123859;27;20035;-63
2022/12/01 01:46:07;;;;;;;71.80;38.00;;;;;;;;;;5105701;27;20408;-63
2022/12/01 01:48:35;;;;;;;66.47;38.58;;;;;;;;;;5126097;27;20323;-63
2022/12/01 01:51:01;;;;;;;67.43;38.20;;;;;;;;;;5128665;27;20035;-63
2022/12/01 01:53:28;;;;;;;71.47;38.97;;;;;;;;;;5127239;27;20314;-63
2022/12/01 01:55:54;;;;;;;75.20;38.92;;;;;;;;;;5121862;27;20035;-63
2022/12/01 01:58:20;;;;;;;68.82;38.58;;;;;;;;;;5108933;27;20524;-63
2022/12/01 02:00:46;;;;;;;72.50;37.85;;;;;;;;;;5114237;27;20039;-63
2022/12/01 02:03:15;;;;;;;63.92;37.35;;;;;;;;;;5114262;27;20043;-62
2022/12/01 02:05:43;;;;;;;74.47;39.35;;;;;;;;;;5107876;28;20153;-63
2022/12/01 02:08:11;;;;;;;63.65;38.90;;;;;;;;;;5103417;27;20043;-63
2022/12/01 02:10:56;;;;;;;74.82;40.20;;;;;;;;;;5121470;27;20396;-63
2022/12/01 02:13:22;;;;;;;70.15;37.97;;;;;;;;;;5128125;27;20078;-63
2022/12/01 02:15:55;;;;;;;70.18;38.83;;;;;;;;;;5122214;27;20044;-63
2022/12/01 02:18:37;;;;;;;77.72;40.58;;;;;;;;;;5115186;27;20286;-63
2022/12/01 02:21:18;;;;;;;70.03;39.65;;;;;;;;;;5127456;27;20507;-64
2022/12/01 02:23:47;;;;;;;71.65;38.15;;;;;;;;;;5106472;27;20031;-63
2022/12/01 02:26:28;;;;;;;77.65;39.80;;;;;;;;;;5120972;27;20505;-63
2022/12/01 02:29:13;;;;;;;64.68;39.65;;;;;;;;;;5111052;27;20039;-63
2022/12/01 02:31:43;;;;;;;72.32;38.97;;;;;;;;;;5119654;27;20039;-63
2022/12/01 02:34:25;;;;;;;65.00;37.42;;;;;;;;;;5115595;27;20071;-63
2022/12/01 02:36:57;;;;;;;72.35;38.03;;;;;;;;;;5125923;27;20043;-63
2022/12/01 02:39:33;;;;;;;77.37;39.37;;;;;;;;;;5092292;27;20527;-63
2022/12/01 02:42:47;;;;;;;82.65;43.08;;;;;;;;;;5122695;27;20560;-62
2022/12/01 02:44:57;;;;;;;72.15;41.35;;;;;;;;;;5114714;27;20077;-63
2022/12/01 02:47:23;;;;;;;72.75;39.20;;;;;;;;;;5104450;27;20039;-63
2022/12/01 02:49:51;;;;;;;74.10;40.85;;;;;;;;;;5118419;27;20117;-63
2022/12/01 02:52:18;;;;;;;87.57;40.97;;;;;;;;;;5119396;27;20035;-63
2022/12/01 02:54:46;;;;;;;74.57;41.85;;;;;;;;;;5115319;27;20118;-62
2022/12/01 02:57:13;;;;;;;83.20;43.33;;;;;;;;;;5114719;27;20531;-63
2022/12/01 02:59:44;;;;;;;85.40;42.95;;;;;;;;;;5110496;27;20481;-63
2022/12/01 03:02:19;;;;;;;86.57;44.35;;;;;;;;;;5115787;27;20032;-63
2022/12/01 03:04:56;;;;;;;76.80;41.70;;;;;;;;;;5115632;27;20053;-63
2022/12/01 03:07:23;;;;;;;79.30;41.10;;;;;;;;;;5095409;28;20059;-63
2022/12/01 03:10:08;;;;;;;81.50;42.83;;;;;;;;;;5113323;27;20044;-63
2022/12/01 03:12:37;;;;;;;84.68;43.47;;;;;;;;;;5116669;28;20043;-63
2022/12/01 03:15:12;;;;;;;73.20;39.42;;;;;;;;;;5123470;28;20039;-63
2022/12/01 03:17:42;;;;;;;79.07;41.85;;;;;;;;;;5127313;28;20103;-63
2022/12/01 03:20:12;;;;;;;76.40;41.10;;;;;;;;;;5113582;28;20067;-62
2022/12/01 03:22:44;;;;;;;78.28;40.63;;;;;;;;;;5127391;28;20038;-63
2022/12/01 03:25:11;;;;;;;85.28;40.97;;;;;;;;;;5106695;28;20107;-63
2022/12/01 03:27:39;;;;;;;88.20;43.95;;;;;;;;;;5115510;28;20454;-63
2022/12/01 03:30:09;;;;;;;83.82;41.22;;;;;;;;;;5111259;28;20158;-64
2022/12/01 03:32:51;;;;;;;86.00;40.30;;;;;;;;;;5112761;28;20115;-64
2022/12/01 03:35:21;;;;;;;87.57;44.20;;;;;;;;;;5117053;28;20526;-63
2022/12/01 03:37:58;;;;;;;75.22;40.33;;;;;;;;;;5118251;28;20292;-64
2022/12/01 03:40:26;;;;;;;75.40;40.78;;;;;;;;;;5114805;27;20569;-63
2022/12/01 03:42:57;;;;;;;82.00;39.83;;;;;;;;;;5118490;27;20075;-64
2022/12/01 03:45:30;;;;;;;74.18;37.85;;;;;;;;;;5123525;27;20118;-63
2022/12/01 03:47:57;;;;;;;68.07;38.78;;;;;;;;;;5128559;27;20031;-63
2022/12/01 03:50:24;;;;;;;87.65;40.22;;;;;;;;;;5113198;27;20042;-63
2022/12/01 03:52:59;;;;;;;78.43;40.55;;;;;;;;;;5117788;27;20118;-63
2022/12/01 03:55:29;;;;;;;82.43;41.75;;;;;;;;;;5124128;27;20356;-63
2022/12/01 03:57:57;;;;;;;79.85;40.58;;;;;;;;;;5117902;27;20063;-63
2022/12/01 04:00:24;;;;;;;68.15;36.78;;;;;;;;;;5114317;27;20049;-63
2022/12/01 04:03:13;;;;;;;76.07;39.75;;;;;;;;;;5122891;27;20039;-63
2022/12/01 04:05:39;;;;;;;88.15;38.97;;;;;;;;;;5125165;27;20346;-63
2022/12/01 04:08:05;;;;;;;83.95;39.83;;;;;;;;;;5123661;27;20039;-64
2022/12/01 04:10:32;;;;;;;76.75;39.92;;;;;;;;;;5105278;28;20044;-63
2022/12/01 04:12:58;;;;;;;71.05;39.42;;;;;;;;;;5103894;27;20070;-63
2022/12/01 04:15:26;;;;;;;76.35;41.65;;;;;;;;;;5115875;27;20048;-64
2022/12/01 04:17:52;;;;;;;77.38;38.97;;;;;;;;;;5122329;27;20061;-63
2022/12/01 04:20:19;;;;;;;81.88;41.83;;;;;;;;;;5118572;27;20489;-63
2022/12/01 04:22:45;;;;;;;91.00;42.22;;;;;;;;;;5108050;27;20103;-63
2022/12/01 04:25:11;;;;;;;78.82;42.05;;;;;;;;;;5096311;27;20035;-63
2022/12/01 04:27:38;;;;;;;79.80;41.85;;;;;;;;;;5095670;27;20488;-64
2022/12/01 04:30:05;;;;;;;79.43;41.97;;;;;;;;;;5120492;27;20054;-63
2022/12/01 04:32:37;;;;;;;89.22;42.78;;;;;;;;;;5126776;27;20489;-64
2022/12/01 04:35:03;;;;;;;83.50;43.40;;;;;;;;;;5119166;27;20039;-63
2022/12/01 04:37:29;;;;;;;83.47;42.78;;;;;;;;;;5120114;27;20046;-63
2022/12/01 04:39:55;;;;;;;85.30;43.80;;;;;;;;;;5116695;27;20118;-63
2022/12/01 04:42:21;;;;;;;83.40;42.92;;;;;;;;;;5121611;27;20083;-64
2022/12/01 04:44:47;;;;;;;84.97;43.17;;;;;;;;;;5126016;27;20039;-63
2022/12/01 04:47:13;;;;;;;78.50;42.45;;;;;;;;;;5126707;27;20051;-63
2022/12/01 04:49:39;;;;;;;90.40;43.55;;;;;;;;;;5122506;27;20076;-63
2022/12/01 04:52:06;;;;;;;79.80;42.03;;;;;;;;;;5121992;27;20421;-63
2022/12/01 04:54:32;;;;;;;79.97;40.92;;;;;;;;;;5122016;27;20515;-63
2022/12/01 04:56:58;;;;;;;83.13;44.13;;;;;;;;;;5117594;27;20031;-64
2022/12/01 04:59:24;;;;;;;88.45;42.08;;;;;;;;;;5107527;28;20035;-63
2022/12/01 05:01:50;;;;;;;84.28;40.47;;;;;;;;;;5116602;27;20088;-63
2022/12/01 05:04:17;;;;;;;90.50;43.05;;;;;;;;;;5122099;27;20066;-63
2022/12/01 05:06:43;;;;;;;75.97;42.95;;;;;;;;;;5110209;27;20057;-63
2022/12/01 05:09:12;;;;;;;81.65;42.65;;;;;;;;;;5092859;27;20100;-63
2022/12/01 05:11:38;;;;;;;83.97;42.63;;;;;;;;;;5128541;27;20084;-63
2022/12/01 05:14:04;;;;;;;96.43;43.95;;;;;;;;;;5125706;27;20503;-63
2022/12/01 05:16:31;;;;;;;87.88;41.80;;;;;;;;;;5116819;27;20027;-64
2022/12/01 05:21:47;;;;;;;76.40;42.50;;;;;;;;;;5126107;27;20069;-63
2022/12/01 05:24:14;;;;;;;76.25;39.92;;;;;;;;;;5126148;27;20043;-63
2022/12/01 05:26:40;;;;;;;88.15;43.88;;;;;;;;;;5115041;27;20123;-63
2022/12/01 05:29:06;;;;;;;75.30;40.35;;;;;;;;;;5114472;27;20047;-63
2022/12/01 05:31:32;;;;;;;83.32;44.83;;;;;;;;;;5121306;27;20435;-63
2022/12/01 05:33:59;;;;;;;75.82;41.70;;;;;;;;;;5117894;27;20074;-63
2022/12/01 05:36:25;;;;;;;83.25;40.92;;;;;;;;;;5114921;27;20042;-63
2022/12/01 05:38:51;;;;;;;81.07;41.90;;;;;;;;;;5106234;27;20037;-63
2022/12/01 05:41:17;;;;;;;82.18;43.33;;;;;;;;;;5111500;27;20077;-63
2022/12/01 05:43:43;;;;;;;70.13;40.85;;;;;;;;;;5125839;27;20039;-63
2022/12/01 05:46:10;;;;;;;86.63;42.03;;;;;;;;;;5123652;27;20042;-63
2022/12/01 05:48:36;;;;;;;75.20;39.15;;;;;;;;;;5126460;27;20031;-63
2022/12/01 05:51:09;;;;;;;78.07;39.75;;;;;;;;;;5107342;28;20044;-63
2022/12/01 05:53:35;;;;;;;72.30;37.83;;;;;;;;;;5115652;27;20036;-63
2022/12/01 05:56:01;;;;;;;63.97;37.58;;;;;;;;;;5121957;27;20039;-64
2022/12/01 05:58:28;;;;;;;75.68;39.97;;;;;;;;;;5094090;27;20073;-63
2022/12/01 06:00:54;;;;;;;63.88;37.38;;;;;;;;;;5127997;27;20047;-64
2022/12/01 06:03:20;;;;;;;71.93;38.13;;;;;;;;;;5124717;27;20117;-64
2022/12/01 06:05:46;;;;;;;75.05;39.38;;;;;;;;;;5124865;27;20043;-63
2022/12/01 06:08:12;;;;;;;76.90;39.15;;;;;;;;;;5129045;27;20107;-63
2022/12/01 06:10:38;;;;;;;67.85;37.55;;;;;;;;;;5121259;27;20130;-63
2022/12/01 06:13:04;;;;;;;57.63;34.85;;;;;;;;;;5113813;27;20070;-63
2022/12/01 06:15:30;;;;;;;60.28;37.67;;;;;;;;;;5121457;27;20062;-63
2022/12/01 06:17:59;;;;;;;60.95;37.58;;;;;;;;;;5112040;27;20035;-63
2022/12/01 06:20:26;;;;;;;75.75;37.72;;;;;;;;;;5116086;27;20461;-63
2022/12/01 06:22:52;;;;;;;84.78;42.63;;;;;;;;;;5114981;27;20104;-63
2022/12/01 06:25:18;;;;;;;86.55;40.28;;;;;;;;;;5113262;27;20066;-63
2022/12/01 06:27:44;;;;;;;75.55;35.95;;;;;;;;;;5113769;27;20051;-63
2022/12/01 06:30:10;;;;;;;71.30;40.50;;;;;;;;;;5113408;27;20579;-63
2022/12/01 06:32:37;;;;;;;69.82;35.47;;;;;;;;;;5110156;27;20126;-64
2022/12/01 06:35:03;;;;;;;71.43;37.83;;;;;;;;;;5112630;27;20067;-63
2022/12/01 06:37:29;;;;;;;69.93;35.90;;;;;;;;;;5113442;27;20201;-63
2022/12/01 06:39:56;;;;;;;58.78;34.33;;;;;;;;;;5113316;27;20447;-63
2022/12/01 06:42:22;;;;;;;55.20;32.97;;;;;;;;;;5112947;27;20039;-63
2022/12/01 06:44:48;;;;;;;62.13;31.75;;;;;;;;;;5105404;28;20095;-64
2022/12/01 06:47:14;;;;;;;67.68;36.33;;;;;;;;;;5121859;27;20520;-63
2022/12/01 06:49:41;;;;;;;42.80;26.98;;;;;;;;;;5122741;27;20043;-63
2022/12/01 06:52:07;;;;;;;55.28;33.35;;;;;;;;;;5117980;27;20509;-62
2022/12/01 06:54:33;;;;;;;53.80;30.52;;;;;;;;;;5103923;27;20035;-62
2022/12/01 06:56:59;;;;;;;59.80;32.22;;;;;;;;;;5109813;27;20092;-63
2022/12/01 06:59:25;;;;;;;51.70;31.23;;;;;;;;;;5113814;27;20118;-63
2022/12/01 07:01:51;;;;;;;62.22;30.75;;;;;;;;;;5115183;27;20507;-62
2022/12/01 07:04:18;;;;;;;53.85;30.02;;;;;;;;;;5116171;27;20455;-62
2022/12/01 07:06:44;;;;;;;52.05;29.85;;;;;;;;;;5113766;28;20477;-62
2022/12/01 07:09:10;;;;;;;64.40;33.13;;;;;;;;;;5115089;27;20039;-63
2022/12/01 07:11:37;;;;;;;54.30;30.95;;;;;;;;;;5096521;28;20084;-62
2022/12/01 07:14:03;;;;;;;54.95;30.30;;;;;;;;;;5099464;27;20039;-62
2022/12/01 07:16:29;;;;;;;50.17;29.00;;;;;;;;;;5082663;27;20489;-62
2022/12/01 07:18:55;;;;;;;52.65;29.05;;;;;;;;;;5122118;27;20108;-62
2022/12/01 07:21:23;;;;;;;56.47;29.08;;;;;;;;;;5102598;28;20027;-62
2022/12/01 07:23:51;;;;;;;45.38;26.55;;;;;;;;;;5119455;27;20066;-64
2022/12/01 07:26:17;;;;;;;42.95;26.98;;;;;;;;;;5117485;27;20166;-62
2022/12/01 07:28:44;;;;;;;52.05;27.25;;;;;;;;;;5130217;27;20035;-62
2022/12/01 07:31:14;;;;;;;44.20;26.63;;;;;;;;;;5116186;27;20075;-62
2022/12/01 07:33:41;;;;;;;44.35;27.90;;;;;;;;;;5122764;27;20031;-63
2022/12/01 07:36:07;;;;;;;48.47;26.27;;;;;;;;;;5095043;27;20066;-62
2022/12/01 07:38:34;;;;;;;48.92;26.70;;;;;;;;;;5090030;27;20058;-63
2022/12/01 07:41:03;;;;;;;51.30;27.17;;;;;;;;;;5116454;27;20031;-62
2022/12/01 07:43:30;;;;;;;52.67;28.85;;;;;;;;;;5119002;27;20439;-63
2022/12/01 07:45:56;;;;;;;48.85;29.70;;;;;;;;;;5092178;27;20485;-64
2022/12/01 07:48:22;;;;;;;50.95;26.98;;;;;;;;;;5123579;27;20046;-62
2022/12/01 07:50:49;;;;;;;54.75;28.90;;;;;;;;;;5085364;27;20428;-62
2022/12/01 07:53:15;;;;;;;53.95;27.20;;;;;;;;;;5116193;27;20035;-63
2022/12/01 07:55:47;;;;;;;42.15;24.50;;;;;;;;;;5121930;27;20035;-62
2022/12/01 07:58:13;;;;;;;48.20;25.38;;;;;;;;;;5127284;27;20038;-63
2022/12/01 08:00:39;;;;;;;45.53;24.92;;;;;;;;;;5102201;27;20051;-62
2022/12/01 08:03:05;;;;;;;43.90;27.05;;;;;;;;;;5122557;27;20043;-62
2022/12/01 08:05:32;;;;;;;46.88;27.08;;;;;;;;;;5099117;27;20043;-62
2022/12/01 08:07:58;;;;;;;50.53;31.58;;;;;;;;;;5114262;27;20035;-62
2022/12/01 08:10:24;;;;;;;48.78;30.63;;;;;;;;;;5117532;27;20039;-63
2022/12/01 08:12:50;;;;;;;47.40;29.30;;;;;;;;;;5086498;27;20074;-62
2022/12/01 08:15:16;;;;;;;55.83;28.33;;;;;;;;;;5093044;27;20043;-62
2022/12/01 08:17:42;;;;;;;54.63;28.88;;;;;;;;;;5100247;27;20039;-63
2022/12/01 08:20:09;;;;;;;51.10;27.27;;;;;;;;;;5118801;27;20051;-62
2022/12/01 08:22:35;;;;;;;46.42;28.63;;;;;;;;;;5119206;27;20484;-62
2022/12/01 08:25:01;;;;;;;48.53;25.77;;;;;;;;;;5117543;27;20358;-62
2022/12/01 08:27:27;;;;;;;43.35;25.33;;;;;;;;;;5101703;27;20504;-62
2022/12/01 08:29:53;;;;;;;40.88;24.10;;;;;;;;;;5119876;27;20042;-62
2022/12/01 08:32:19;;;;;;;46.30;26.42;;;;;;;;;;5115456;27;20027;-62
2022/12/01 08:34:45;;;;;;;48.97;27.00;;;;;;;;;;5115322;27;20032;-63
2022/12/01 08:37:12;;;;;;;44.10;24.77;;;;;;;;;;5117362;27;20066;-62
2022/12/01 08:39:38;;;;;;;39.70;22.75;;;;;;;;;;5094720;28;20036;-62
2022/12/01 08:42:04;;;;;;;39.70;23.38;;;;;;;;;;5112104;27;20093;-62
2022/12/01 08:44:30;;;;;;;38.45;24.25;;;;;;;;;;5100859;27;20558;-62
2022/12/01 08:46:56;;;;;;;46.22;25.13;;;;;;;;;;5097463;27;20043;-62
2022/12/01 08:49:22;;;;;;;37.30;21.75;;;;;;;;;;5116678;27;20059;-61
2022/12/01 08:51:48;;;;;;;36.92;24.48;;;;;;;;;;5118148;27;20054;-61
2022/12/01 08:54:15;;;;;;;33.47;21.17;;;;;;;;;;5114524;27;20473;-61
2022/12/01 08:56:42;;;;;;;38.15;22.23;;;;;;;;;;5114076;27;20260;-62
2022/12/01 08:59:08;;;;;;;43.03;21.73;;;;;;;;;;5114943;27;20027;-61
2022/12/01 09:01:50;;;;;;;32.17;19.88;;;;;;;;;;5115684;27;20110;-62
2022/12/01 09:04:17;;;;;;;39.20;22.33;;;;;;;;;;5117576;27;20290;-62
2022/12/01 09:06:44;;;;;;;37.15;21.65;;;;;;;;;;5121167;27;20031;-64
2022/12/01 09:09:11;;;;;;;40.92;22.17;;;;;;;;;;5121228;27;20032;-62
2022/12/01 09:11:37;;;;;;;30.77;19.05;;;;;;;;;;5114923;27;20042;-62
2022/12/01 09:14:04;;;;;;;38.88;19.17;;;;;;;;;;5099839;27;20119;-62
2022/12/01 09:16:30;;;;;;;30.48;17.20;;;;;;;;;;5095954;28;20047;-62
2022/12/01 09:18:56;;;;;;;29.48;17.52;;;;;;;;;;5114411;27;20154;-62
2022/12/01 09:21:24;;;;;;;30.77;16.35;;;;;;;;;;5098687;27;20404;-62
2022/12/01 09:23:50;;;;;;;34.40;18.10;;;;;;;;;;5122391;27;20100;-62
2022/12/01 09:26:17;;;;;;;30.25;18.60;;;;;;;;;;5124904;27;20039;-62
2022/12/01 09:28:44;;;;;;;35.22;19.45;;;;;;;;;;5104928;28;20043;-62
2022/12/01 09:31:11;;;;;;;27.13;16.90;;;;;;;;;;5098270;28;20371;-62
2022/12/01 09:33:38;;;;;;;36.25;18.77;;;;;;;;;;5098527;28;20032;-62
2022/12/01 09:36:06;;;;;;;33.83;17.98;;;;;;;;;;5098187;28;20035;-62
2022/12/01 09:38:33;;;;;;;31.70;19.27;;;;;;;;;;5107882;28;20066;-63
2022/12/01 09:41:00;;;;;;;31.65;17.67;;;;;;;;;;5096769;28;20127;-63
2022/12/01 09:43:28;;;;;;;25.25;16.85;;;;;;;;;;5093271;28;20084;-62
2022/12/01 09:46:01;;;;;;;29.10;16.58;;;;;;;;;;5096645;28;20428;-63
2022/12/01 09:48:56;;;;;;;27.85;17.23;;;;;;;;;;5090878;28;20078;-62
2022/12/01 09:51:24;;;;;;;27.50;16.90;;;;;;;;;;5077602;28;20087;-62
2022/12/01 09:53:51;;;;;;;29.30;16.92;;;;;;;;;;5094007;28;20047;-63
2022/12/01 09:56:22;;;;;;;29.27;16.10;;;;;;;;;;5092316;28;20036;-63
2022/12/01 09:58:59;;;;;;;23.70;14.35;;;;;;;;;;5097691;28;20036;-63
2022/12/01 10:01:30;;;;;;;22.90;14.57;;;;;;;;;;5091349;28;20031;-62
2022/12/01 10:03:58;;;;;;;20.10;13.25;;;;;;;;;;5090314;28;20118;-62
2022/12/01 10:06:27;;;;;;;23.70;13.60;;;;;;;;;;5091967;28;20073;-62
2022/12/01 10:09:02;;;;;;;26.70;14.23;;;;;;;;;;5090324;28;20468;-62
2022/12/01 10:11:31;;;;;;;24.33;15.13;;;;;;;;;;5094756;28;20072;-63
2022/12/01 10:13:58;;;;;;;26.75;17.20;;;;;;;;;;5091722;28;20048;-63
2022/12/01 10:16:32;;;;;;;22.33;13.52;;;;;;;;;;5091900;28;20040;-62
2022/12/01 10:19:04;;;;;;;21.73;14.68;;;;;;;;;;5099017;28;20043;-63
2022/12/01 10:21:39;;;;;;;23.55;14.02;;;;;;;;;;5096034;28;20040;-62
2022/12/01 10:24:09;;;;;;;26.45;14.73;;;;;;;;;;5100604;28;20071;-62
2022/12/01 10:27:04;;;;;;;22.80;14.27;;;;;;;;;;5090672;27;20100;-63
2022/12/01 10:29:51;;;;;;;23.50;14.23;;;;;;;;;;5054463;27;20048;-63
2022/12/01 10:32:18;;;;;;;24.50;15.07;;;;;;;;;;5110794;27;20043;-63
2022/12/01 10:34:46;;;;;;;26.30;15.57;;;;;;;;;;5120429;27;20040;-63
2022/12/01 10:37:23;;;;;;;21.98;14.63;;;;;;;;;;5116218;27;20035;-63
2022/12/01 10:39:50;;;;;;;23.55;15.05;;;;;;;;;;5104152;27;20027;-63
2022/12/01 10:42:37;;;;;;;26.27;14.38;;;;;;;;;;5125453;27;20110;-63
2022/12/01 10:45:06;;;;;;;24.23;14.25;;;;;;;;;;5114232;27;20051;-63
2022/12/01 10:47:32;;;;;;;21.25;13.85;;;;;;;;;;5121052;27;20535;-64
2022/12/01 10:49:58;;;;;;;20.70;13.63;;;;;;;;;;5113665;27;20093;-64
2022/12/01 10:52:37;;;;;;;20.30;13.75;;;;;;;;;;5096315;27;20046;-63
2022/12/01 10:55:05;;;;;;;23.80;13.70;;;;;;;;;;5118747;27;20504;-63
2022/12/01 10:57:32;;;;;;;21.00;12.68;;;;;;;;;;5120350;27;20397;-63
2022/12/01 11:00:10;;;;;;;20.73;13.15;;;;;;;;;;5109308;27;20044;-63
2022/12/01 11:02:36;;;;;;;20.50;11.85;;;;;;;;;;5114229;27;20031;-63
2022/12/01 11:05:05;;;;;;;21.17;13.40;;;;;;;;;;5086411;27;20031;-63
2022/12/01 11:07:31;;;;;;;14.65;10.77;;;;;;;;;;5107648;28;20039;-64
2022/12/01 11:10:16;;;;;;;16.25;11.55;;;;;;;;;;5123493;27;20194;-64
2022/12/01 11:12:43;;;;;;;15.85;10.82;;;;;;;;;;5116874;28;20035;-64
2022/12/01 11:15:17;;;;;;;14.13;9.75;;;;;;;;;;5104366;28;20041;-64
2022/12/01 11:17:45;;;;;;;14.52;8.68;;;6.90;99.90;;;;;;5111144;28;20031;-64
2022/12/01 11:20:26;;;;;;;15.20;9.15;;;;;;;;;;5111885;28;20172;-63
2022/12/01 11:22:53;;;;;;;15.35;8.77;;;;;;;;;;5111057;28;20516;-64
2022/12/01 11:25:20;;;;;;;14.32;9.07;;;;;;;;;;5113684;28;20131;-64
2022/12/01 11:27:53;;;;;;;13.35;9.25;;;;;;;;;;5076646;28;20109;-64
2022/12/01 11:30:23;;;;;;;11.93;8.50;;;8.50;99.90;;;;;;5110569;28;20055;-63
2022/12/01 11:32:55;;;;;;;14.63;8.90;;;10.10;99.90;;;;;;5114117;28;20044;-64
2022/12/01 11:35:23;;;;;;;14.05;8.85;;;;;;;;;;5117004;28;20194;-64
2022/12/01 11:37:51;;;;;;;13.68;9.73;;;;;;;;;;5121763;28;20681;-64
2022/12/01 11:40:20;;;;;;;16.42;9.55;;;;;;;;;;5119861;28;20035;-63
2022/12/01 11:42:50;;;;;;;16.58;9.38;;;;;;;;;;5123074;28;20454;-64
2022/12/01 11:45:19;;;;;;;12.32;9.32;;;;;;;;;;5119579;28;20043;-63
2022/12/01 11:48:01;;;;;;;14.32;8.63;;;;;;;;;;5121494;28;20079;-64
2022/12/01 11:50:28;;;;;;;16.02;9.82;;;;;;;;;;5122319;28;20077;-63
2022/12/01 11:52:55;;;;;;;12.70;9.18;;;;;;;;;;5124303;28;20130;-63
2022/12/01 11:55:25;;;;;;;13.38;8.13;;;;;;;;;;5122571;28;20034;-64
2022/12/01 11:57:57;;;;;;;15.05;7.35;;;;;;;;;;5124341;28;20539;-63
2022/12/01 12:00:25;;;;;;;11.80;8.15;;;;;;;;;;5118051;27;20082;-64
2022/12/01 12:03:07;;;;;;;11.90;8.48;;;;;;;;;;5118844;27;20039;-63
2022/12/01 12:05:33;;;;;;;12.43;8.23;;;;;;;;;;5117227;27;20046;-63
2022/12/01 12:08:07;;;;;;;10.90;7.78;;;;;;;;;;5119859;27;20130;-63
2022/12/01 12:10:36;;;;;;;12.07;8.88;;;;;;;;;;5109191;27;20035;-63
2022/12/01 12:13:14;;;;;;;12.02;7.82;;;;;;;;;;5116186;27;20939;-63
2022/12/01 12:16:27;;;;;;;9.93;7.50;;;10.60;99.90;;;;;;5121511;27;20487;-63
2022/12/01 12:19:23;;;;;;;15.07;8.90;;;;;;;;;;5030097;28;20087;-63
2022/12/01 12:22:15;;;;;;;14.80;8.45;;;;;;;;;;5051460;27;20060;-64
2022/12/01 12:24:50;;;;;;;15.27;8.70;;;;;;;;;;5106586;27;20113;-64
2022/12/01 12:27:25;;;;;;;15.75;8.40;;;;;;;;;;5123810;27;20077;-64
2022/12/01 12:30:03;;;;;;;16.70;9.88;;;;;;;;;;5110777;27;20062;-64
2022/12/01 12:32:43;;;;;;;12.55;9.63;;;;;;;;;;5119414;27;20039;-64
2022/12/01 12:35:28;;;;;;;12.77;7.95;;;;;;;;;;5120020;27;20399;-64
2022/12/01 12:38:13;;;;;;;14.93;9.30;;;;;;;;;;5117276;27;20081;-64
2022/12/01 12:40:47;;;;;;;13.93;9.20;;;;;;;;;;5118540;27;20047;-64
2022/12/01 12:43:19;;;;;;;13.60;8.65;;;;;;;;;;5102758;27;20031;-61
2022/12/01 12:45:54;;;;;;;13.88;9.18;;;;;;;;;;5086588;27;20044;-64
2022/12/01 12:48:25;;;;;;;14.27;9.00;;;;;;;;;;5118961;27;20039;-64
2022/12/01 12:51:01;;;;;;;12.18;9.30;;;;;;;;;;5106833;27;20051;-64
2022/12/01 12:53:31;;;;;;;10.63;8.75;;;;;;;;;;5107420;27;20151;-64
2022/12/01 12:56:03;;;;;;;13.20;8.27;;;;;;;;;;5107394;27;20062;-64
2022/12/01 12:58:35;;;;;;;12.32;8.77;;;;;;;;;;5122416;27;20039;-64
2022/12/01 13:01:04;;;;;;;14.38;9.85;;;;;;;;;;5118940;27;20050;-64
2022/12/01 13:03:36;;;;;;;14.23;9.82;;;;;;;;;;5120508;27;20157;-64
2022/12/01 13:06:08;;;;;;;14.90;9.80;;;;;;;;;;5122773;27;20044;-64
2022/12/01 13:08:46;;;;;;;12.40;8.77;;;8.20;99.90;;;;;;5125719;27;20511;-64
2022/12/01 13:11:21;;;;;;;14.90;10.60;;;9.50;99.90;;;;;;5124309;27;20053;-64
2022/12/01 13:13:56;;;;;;;12.77;9.52;;;9.30;99.90;;;;;;5103523;27;20507;-64
2022/12/01 13:16:30;;;;;;;14.27;9.98;;;9.20;99.90;;;;;;5116297;27;20439;-64
2022/12/01 13:19:15;;;;;;;16.42;11.18;;;;;;;;;;5084044;27;20050;-64
2022/12/01 13:21:44;;;;;;;13.75;9.63;;;9.10;99.90;;;;;;5121398;27;20063;-64
2022/12/01 13:24:14;;;;;;;13.45;8.98;;;8.90;99.90;;;;;;5120634;27;20043;-64
2022/12/01 13:26:41;;;;;;;19.02;10.43;;;;;;;;;;5117766;27;20073;-64
2022/12/01 13:29:09;;;;;;;15.00;10.23;;;;;;;;;;5114966;27;20054;-64
2022/12/01 13:31:42;;;;;;;12.70;9.02;;;;;;;;;;5122577;27;20027;-64
2022/12/01 13:34:18;;;;;;;15.77;10.95;;;;;;;;;;5113972;27;20088;-64
2022/12/01 13:36:48;;;;;;;13.27;9.70;;;;;;;;;;5124341;27;20092;-64
2022/12/01 13:39:19;;;;;;;13.02;8.02;;;;;;;;;;5125743;27;20577;-64
2022/12/01 13:41:45;;;;;;;15.00;10.25;;;8.80;99.90;;;;;;5121529;27;20468;-64
2022/12/01 13:44:20;;;;;;;16.75;9.75;;;8.30;99.90;;;;;;5125930;27;20050;-64
2022/12/01 13:46:46;;;;;;;13.63;9.43;;;;;;;;;;5119869;27;20039;-63
2022/12/01 13:49:44;;;;;;;17.02;10.73;;;8.20;99.90;;;;;;5122515;27;20043;-64
2022/12/01 13:52:24;;;;;;;14.73;9.93;;;8.10;99.90;;;;;;5121797;27;20035;-64
2022/12/01 13:55:09;;;;;;;14.25;10.38;;;;;;;;;;5121200;27;20389;-64
2022/12/01 13:57:45;;;;;;;16.92;10.95;;;;;;;;;;5118401;27;20705;-64
2022/12/01 14:00:23;;;;;;;15.93;10.48;;;;;;;;;;5118645;27;20074;-64
2022/12/01 14:03:08;;;;;;;15.70;9.77;;;;;;;;;;5117152;27;20511;-63
2022/12/01 14:05:52;;;;;;;17.30;10.27;;;8.10;99.90;;;;;;5119698;27;20083;-63
2022/12/01 14:08:25;;;;;;;18.00;10.70;;;7.90;99.90;;;;;;5126291;27;20443;-63
2022/12/01 14:10:52;;;;;;;13.77;9.38;;;7.80;99.90;;;;;;5121035;27;20039;-64
2022/12/01 14:13:20;;;;;;;15.02;10.27;;;7.80;99.90;;;;;;5121982;27;20041;-64
2022/12/01 14:15:52;;;;;;;20.10;11.85;;;;;;;;;;5121196;27;20035;-64
2022/12/01 14:18:18;;;;;;;18.15;11.85;;;;;;;;;;5120179;27;20110;-64
2022/12/01 14:20:46;;;;;;;14.90;9.57;;;7.80;99.90;;;;;;5102564;27;20145;-64
2022/12/01 14:23:14;;;;;;;16.42;10.95;;;;;;;;;;5117762;27;20099;-64
2022/12/01 14:25:41;;;;;;;16.65;10.68;;;;;;;;;;5125098;27;20043;-63
2022/12/01 14:28:15;;;;;;;15.77;10.48;;;7.70;99.90;;;;;;5099885;27;20512;-64
2022/12/01 14:30:44;;;;;;;18.52;9.75;;;;;;;;;;5119961;27;20478;-63